Absecon, New Jersey
Current Conditions -  °F | °C
As of 7:54 PM on Tuesday 27 Jan 2015 (Local Time) from KACY Reporting Station
Clear Clear  
Wind Chill: -7°   Ceiling: Unl
Heat Index: -3°   Visibility: 10mi
Dew Point: -10°   Wind: 8mph
Humidity: 58%   Direction: 300°WNW
Pressure: 29.78"   Gusts: NA
Location:  39.43°N, 74.51°W
Report Text: KACY 280054Z 30007KT 10SM CLR M03/M10 A2978 RMK AO2 SLP083 T10281100
Loading
Personal Weather Stations






























Interactive Weather Map New forecast layout! Learn more

10-Day Weather Forecast

Advertisements
Track Severe Weather on mobile